KDDH

William H Morse State Airport

Bennington, Vermont, USA
METAR KDDH 191554Z AUTO 19003KT 10SM OVC095 M07/M12 A3026 RMK AO2 SLP260 T10671117
Observed Flight Rules
Jan-19 @ 15:54 UTC (47 minutes ago) Visual Flight Rules
Wind Visibility Clouds
190° at 3 knots 10 miles
  • Overcast at 9,500' AGL
Temperatures Readings
Current -7°C / 19°F
Dewpoint -12°C / 10°F
Humidity 68%
Altimeter 30.26" Hg
Pressure 1026 hPa
Elevation 244
METAR KDDH 191554Z AUTO 19003KT 10SM OVC095 M07/M12 A3026 RMK AO2 SLP260 T10671117
Observed Flight Rules
Jan-19 @ 15:54 UTC
(47 minutes ago)
VFR
Wind Visibility
190° at 3 knots 10 miles
Clouds
  • Overcast at 9,500' AGL
Temperature Dewpoint
-7°C / 19°F -12°C / 10°F
Humidity Altimeter Pressure
68% 30.26" Hg 1026 hPa